createdAt,value
2018-09-12T00:01:42.699Z,8.00
2018-09-12T00:04:14.231Z,8.50
2018-09-12T00:06:45.574Z,8.60
2018-09-12T00:09:16.579Z,7.47
2018-09-12T00:11:47.128Z,7.80
2018-09-12T00:14:18.633Z,7.40
2018-09-12T00:16:50.116Z,7.43
2018-09-12T00:19:21.161Z,7.90
2018-09-12T00:21:53.040Z,8.27
2018-09-12T00:24:24.465Z,8.03
2018-09-12T00:26:55.910Z,8.77
2018-09-12T00:29:27.426Z,8.77
2018-09-12T00:31:58.354Z,8.93
2018-09-12T00:34:29.370Z,8.80
2018-09-12T00:37:01.021Z,8.70
2018-09-12T00:39:32.377Z,8.87
2018-09-12T00:42:04.000Z,9.43
2018-09-12T00:44:35.617Z,9.37
2018-09-12T00:47:07.182Z,8.77
2018-09-12T00:49:37.725Z,8.97
2018-09-12T00:52:09.302Z,9.03
2018-09-12T00:54:40.782Z,9.80
2018-09-12T00:57:12.216Z,8.50
2018-09-12T00:59:43.720Z,8.47
2018-09-12T01:02:15.008Z,8.83
2018-09-12T01:04:46.731Z,9.27
2018-09-12T01:07:17.905Z,10.73
2018-09-12T01:09:49.132Z,10.37
2018-09-12T01:12:20.443Z,9.87
2018-09-12T01:14:51.805Z,8.83
2018-09-12T01:17:23.326Z,9.00
2018-09-12T01:19:54.670Z,9.20
2018-09-12T01:22:26.612Z,8.57
2018-09-12T01:24:57.082Z,9.57
2018-09-12T01:27:28.562Z,9.50
2018-09-12T01:30:00.155Z,9.33
2018-09-12T01:32:31.390Z,8.53
2018-09-12T01:35:02.983Z,8.83
2018-09-12T01:37:34.043Z,8.33
2018-09-12T01:40:05.784Z,9.03
2018-09-12T01:42:37.276Z,8.43
2018-09-12T01:45:08.813Z,8.73
2018-09-12T01:47:39.879Z,8.83
2018-09-12T01:50:11.449Z,7.73
2018-09-12T01:52:42.877Z,8.63
2018-09-12T01:55:14.448Z,9.37
2018-09-12T01:57:45.994Z,8.60
2018-09-12T02:00:19.407Z,9.00
2018-09-12T02:02:50.787Z,9.43
2018-09-12T02:05:22.306Z,9.20
2018-09-12T02:07:53.280Z,9.43
2018-09-12T02:10:24.936Z,9.70
2018-09-12T02:12:56.461Z,9.03
2018-09-12T02:15:27.910Z,8.57
2018-09-12T02:17:59.112Z,8.40
2018-09-12T02:20:30.341Z,9.83
2018-09-12T02:23:01.775Z,9.50
2018-09-12T02:25:32.703Z,10.60
2018-09-12T02:28:04.356Z,10.00
2018-09-12T02:30:35.605Z,9.33
2018-09-12T02:33:06.645Z,10.13
2018-09-12T02:35:43.834Z,10.00
2018-09-12T02:38:15.422Z,9.80
2018-09-12T02:40:46.537Z,9.53
2018-09-12T02:43:17.649Z,10.33
2018-09-12T02:45:48.904Z,10.00
2018-09-12T02:48:20.481Z,10.00
2018-09-12T02:50:51.813Z,10.23
2018-09-12T02:53:23.038Z,8.93
2018-09-12T02:55:54.776Z,10.03
2018-09-12T02:58:26.060Z,10.10
2018-09-12T03:00:56.508Z,9.20
2018-09-12T03:03:27.743Z,9.63
2018-09-12T03:05:59.452Z,9.33
2018-09-12T03:08:30.900Z,9.17
2018-09-12T03:11:02.273Z,9.97
2018-09-12T03:13:33.272Z,9.53
2018-09-12T03:16:04.426Z,9.90
2018-09-12T03:18:35.661Z,9.70
2018-09-12T03:21:07.599Z,9.53
2018-09-12T03:23:38.815Z,9.37
2018-09-12T03:26:10.543Z,9.10
2018-09-12T03:28:41.841Z,10.73
2018-09-12T03:31:13.571Z,10.23
2018-09-12T03:33:44.935Z,11.13
2018-09-12T03:36:15.319Z,10.57
2018-09-12T03:38:46.539Z,10.67
2018-09-12T03:41:18.125Z,9.87
2018-09-12T03:43:50.152Z,9.77
2018-09-12T03:46:21.967Z,11.33
2018-09-12T03:48:53.417Z,10.07
2018-09-12T03:51:24.737Z,10.67
2018-09-12T03:53:56.275Z,10.13
2018-09-12T03:56:27.682Z,10.90
2018-09-12T03:58:59.583Z,10.77
2018-09-12T04:01:30.820Z,10.80
2018-09-12T04:04:01.810Z,9.93
2018-09-12T04:06:32.964Z,11.80
2018-09-12T04:09:05.140Z,11.03
2018-09-12T04:11:35.553Z,11.30
2018-09-12T04:14:06.767Z,10.10
2018-09-12T04:16:36.554Z,10.30
2018-09-12T04:19:07.863Z,11.50
2018-09-12T04:21:38.911Z,12.60
2018-09-12T04:24:09.464Z,11.27
2018-09-12T04:26:40.508Z,11.57
2018-09-12T04:29:10.802Z,11.00
2018-09-12T04:31:41.930Z,11.27
2018-09-12T04:34:12.148Z,11.23
2018-09-12T04:36:42.105Z,11.20
2018-09-12T04:39:13.210Z,11.90
2018-09-12T04:41:43.542Z,11.27
2018-09-12T04:44:13.705Z,12.03
2018-09-12T04:46:43.847Z,11.90
2018-09-12T04:49:14.247Z,12.33
2018-09-12T04:51:47.071Z,12.13
2018-09-12T04:54:17.044Z,13.30
2018-09-12T04:56:46.974Z,13.27
2018-09-12T04:59:17.195Z,15.80
2018-09-12T05:01:47.288Z,15.60
2018-09-12T05:04:17.432Z,15.80
2018-09-12T05:06:47.698Z,15.20
2018-09-12T05:09:17.744Z,15.27
2018-09-12T05:11:47.920Z,14.47
2018-09-12T05:14:18.113Z,15.30
2018-09-12T05:16:48.156Z,15.77
2018-09-12T05:19:18.335Z,16.37
2018-09-12T05:21:48.493Z,16.70
2018-09-12T05:24:18.662Z,16.87
2018-09-12T05:26:48.709Z,19.83
2018-09-12T05:29:18.831Z,14.40
2018-09-12T05:31:48.868Z,14.40
2018-09-12T05:34:18.859Z,13.33
2018-09-12T05:36:48.659Z,14.13
2018-09-12T05:39:18.870Z,12.23
2018-09-12T05:41:49.085Z,12.90
2018-09-12T05:44:19.179Z,11.37
2018-09-12T05:46:49.347Z,12.00
2018-09-12T05:49:19.854Z,11.47
2018-09-12T05:51:50.319Z,12.17
2018-09-12T05:54:20.360Z,15.47
2018-09-12T05:56:50.507Z,19.87
2018-09-12T05:59:20.648Z,14.33
2018-09-12T06:01:50.861Z,12.57
2018-09-12T06:04:21.053Z,11.40
2018-09-12T06:06:52.644Z,10.90
2018-09-12T06:09:22.677Z,10.50
2018-09-12T06:11:52.764Z,10.37
2018-09-12T06:14:22.943Z,12.50
2018-09-12T06:16:53.029Z,13.13
2018-09-12T06:19:23.261Z,10.07
2018-09-12T06:21:53.573Z,10.57
2018-09-12T06:24:23.756Z,10.73
2018-09-12T06:26:53.909Z,9.77
2018-09-12T06:29:24.138Z,10.43
2018-09-12T06:31:54.995Z,9.73
2018-09-12T06:34:25.004Z,10.27
2018-09-12T06:36:55.137Z,10.50
2018-09-12T06:39:25.185Z,16.37
2018-09-12T06:41:55.384Z,9.43
2018-09-12T06:44:25.404Z,8.77
2018-09-12T06:46:55.626Z,8.10
2018-09-12T06:49:25.864Z,8.90
2018-09-12T06:51:56.081Z,8.57
2018-09-12T06:54:25.985Z,9.97
2018-09-12T06:56:56.109Z,8.37
2018-09-12T06:59:26.381Z,9.07
2018-09-12T07:01:56.579Z,8.97
2018-09-12T07:04:26.700Z,7.90
2018-09-12T07:06:56.861Z,8.27
2018-09-12T07:09:27.106Z,9.03
2018-09-12T07:11:57.139Z,8.33
2018-09-12T07:14:27.290Z,8.70
2018-09-12T07:16:57.383Z,7.67
2018-09-12T07:19:27.404Z,7.73
2018-09-12T07:21:57.183Z,8.87
2018-09-12T07:24:27.025Z,8.67
2018-09-12T07:26:56.768Z,9.40
2018-09-12T07:29:26.707Z,8.23
2018-09-12T07:31:56.459Z,8.30
2018-09-12T07:34:26.259Z,7.53
2018-09-12T07:36:56.072Z,7.63
2018-09-12T07:39:25.804Z,7.30
2018-09-12T07:41:55.708Z,7.00
2018-09-12T07:44:25.488Z,7.03
2018-09-12T07:46:55.235Z,7.00
2018-09-12T07:49:25.089Z,7.30
2018-09-12T07:51:54.851Z,7.30
2018-09-12T07:54:24.837Z,7.37
2018-09-12T07:56:54.672Z,7.13
2018-09-12T07:59:24.447Z,6.60
2018-09-12T08:01:54.196Z,6.23
2018-09-12T08:04:23.950Z,7.07
2018-09-12T08:06:53.762Z,6.77
2018-09-12T08:09:23.612Z,6.27
2018-09-12T08:11:53.406Z,7.00
2018-09-12T08:14:23.135Z,6.57
2018-09-12T08:16:53.013Z,6.40
2018-09-12T08:19:22.811Z,6.47
2018-09-12T08:21:52.558Z,6.37
2018-09-12T08:24:22.312Z,6.40
2018-09-12T08:26:52.093Z,6.83
2018-09-12T08:29:21.882Z,6.60
2018-09-12T08:31:51.636Z,6.70
2018-09-12T08:34:21.409Z,6.70
2018-09-12T08:36:51.194Z,6.73
2018-09-12T08:39:20.978Z,6.37
2018-09-12T08:41:50.759Z,6.87
2018-09-12T08:44:20.473Z,7.37
2018-09-12T08:46:50.249Z,6.10
2018-09-12T08:49:19.995Z,6.00
2018-09-12T08:51:49.848Z,6.33
2018-09-12T08:54:19.609Z,6.40
2018-09-12T08:56:49.421Z,5.93
2018-09-12T08:59:19.245Z,6.50
2018-09-12T09:01:48.972Z,6.90
2018-09-12T09:04:18.737Z,9.40
2018-09-12T09:06:48.488Z,6.67
2018-09-12T09:09:18.279Z,7.00
2018-09-12T09:11:48.029Z,6.50
2018-09-12T09:14:17.781Z,9.83
2018-09-12T09:16:47.571Z,6.40
2018-09-12T09:19:17.371Z,6.27
2018-09-12T09:21:47.167Z,6.43
2018-09-12T09:24:16.918Z,6.70
2018-09-12T09:26:47.084Z,6.97
2018-09-12T09:29:16.901Z,6.23
2018-09-12T09:31:47.248Z,6.67
2018-09-12T09:34:17.027Z,6.60
2018-09-12T09:36:46.768Z,6.10
2018-09-12T09:39:16.630Z,6.17
2018-09-12T09:41:46.419Z,5.90
2018-09-12T09:44:16.208Z,5.83
2018-09-12T09:46:45.937Z,6.53
2018-09-12T09:49:15.831Z,6.50
2018-09-12T09:51:45.706Z,6.37
2018-09-12T09:54:15.507Z,6.27
2018-09-12T09:56:45.250Z,7.03
2018-09-12T09:59:15.066Z,6.57
2018-09-12T10:01:49.903Z,5.87
2018-09-12T10:04:24.291Z,5.73
2018-09-12T10:06:59.765Z,6.30
2018-09-12T10:09:31.553Z,6.77
2018-09-12T10:12:02.665Z,6.07
2018-09-12T10:14:32.435Z,6.25
2018-09-12T10:17:02.259Z,5.83
2018-09-12T10:19:32.004Z,5.80
2018-09-12T10:22:01.854Z,6.03
2018-09-12T10:24:31.614Z,5.72
2018-09-12T10:27:01.664Z,6.17
2018-09-12T10:29:32.093Z,5.90
2018-09-12T10:32:02.277Z,5.37
2018-09-12T10:34:32.511Z,5.73
2018-09-12T10:37:02.707Z,5.90
2018-09-12T10:39:32.857Z,5.93
2018-09-12T10:42:03.057Z,5.27
2018-09-12T10:44:33.137Z,5.63
2018-09-12T10:47:03.223Z,6.80
2018-09-12T10:49:33.633Z,6.73
2018-09-12T10:52:04.212Z,6.87
2018-09-12T10:54:34.895Z,6.53
2018-09-12T10:57:04.971Z,6.60
2018-09-12T10:59:35.097Z,7.50
2018-09-12T11:02:05.353Z,5.97
2018-09-12T11:04:35.433Z,6.07
2018-09-12T11:07:05.666Z,6.00
2018-09-12T11:09:35.762Z,6.20
2018-09-12T11:12:05.850Z,6.73
2018-09-12T11:14:36.031Z,6.30
2018-09-12T11:17:06.260Z,7.17
2018-09-12T11:19:36.661Z,6.93
2018-09-12T11:22:06.835Z,8.20
2018-09-12T11:24:37.138Z,7.53
2018-09-12T11:27:07.179Z,7.30
2018-09-12T11:29:37.441Z,6.80
2018-09-12T11:32:07.610Z,6.57
2018-09-12T11:34:38.043Z,7.40
2018-09-12T11:37:08.347Z,6.77
2018-09-12T11:39:38.631Z,7.20
2018-09-12T11:42:08.673Z,7.20
2018-09-12T11:44:39.017Z,6.80
2018-09-12T11:47:09.346Z,6.50
2018-09-12T11:49:39.613Z,6.93
2018-09-12T11:52:09.962Z,7.40
2018-09-12T11:54:40.378Z,7.57
2018-09-12T11:57:10.508Z,7.53
2018-09-12T11:59:40.767Z,7.13
2018-09-12T12:02:11.092Z,8.03
2018-09-12T12:04:41.500Z,7.53
2018-09-12T12:07:11.815Z,7.20
2018-09-12T12:09:42.211Z,7.60
2018-09-12T12:12:12.539Z,7.37
2018-09-12T12:14:42.501Z,7.83
2018-09-12T12:17:12.789Z,7.10
2018-09-12T12:19:43.115Z,7.83
2018-09-12T12:22:13.441Z,8.07
2018-09-12T12:24:43.649Z,8.23
2018-09-12T12:27:14.025Z,7.90
2018-09-12T12:29:44.799Z,7.30
2018-09-12T12:32:14.904Z,7.47
2018-09-12T12:34:44.908Z,8.50
2018-09-12T12:37:15.070Z,8.53
2018-09-12T12:39:45.327Z,8.60
2018-09-12T12:42:15.590Z,9.43
2018-09-12T12:44:45.817Z,9.83
2018-09-12T12:47:15.761Z,8.40
2018-09-12T12:49:45.955Z,8.57
2018-09-12T12:52:16.222Z,8.53
2018-09-12T12:54:46.520Z,8.17
2018-09-12T12:57:16.638Z,7.97
2018-09-12T12:59:47.187Z,8.20
2018-09-12T13:02:17.327Z,8.23
2018-09-12T13:04:47.456Z,8.40
2018-09-12T13:07:17.464Z,7.67
2018-09-12T13:09:47.500Z,8.83
2018-09-12T13:12:17.619Z,8.50
2018-09-12T13:14:47.931Z,8.40
2018-09-12T13:17:18.012Z,8.17
2018-09-12T13:19:48.062Z,8.80
2018-09-12T13:22:18.192Z,8.53
2018-09-12T13:24:48.643Z,7.80
2018-09-12T13:27:19.280Z,8.30
2018-09-12T13:29:49.451Z,8.20
2018-09-12T13:32:19.501Z,8.27
2018-09-12T13:34:49.846Z,7.87
2018-09-12T13:37:20.145Z,8.20
2018-09-12T13:39:50.226Z,8.27
2018-09-12T13:42:20.421Z,8.80
2018-09-12T13:44:50.804Z,8.07
2018-09-12T13:47:21.011Z,7.67
2018-09-12T13:49:51.417Z,7.80
2018-09-12T13:52:21.388Z,8.17
2018-09-12T13:54:51.622Z,7.30
2018-09-12T13:57:21.792Z,9.77
2018-09-12T13:59:52.151Z,8.20
2018-09-12T14:02:22.690Z,8.07
2018-09-12T14:04:53.256Z,7.40
2018-09-12T14:07:23.504Z,7.43
2018-09-12T14:09:53.724Z,7.30
2018-09-12T14:12:23.996Z,7.30
2018-09-12T14:14:54.201Z,6.93
2018-09-12T14:17:24.496Z,7.57
2018-09-12T14:19:54.922Z,7.83
2018-09-12T14:22:25.032Z,8.17
2018-09-12T14:24:55.294Z,8.73
2018-09-12T14:27:25.649Z,8.33
2018-09-12T14:29:56.523Z,7.90
2018-09-12T14:32:27.049Z,8.57
2018-09-12T14:34:57.327Z,8.50
2018-09-12T14:37:27.449Z,8.50
2018-09-12T14:39:57.503Z,7.83
2018-09-12T14:42:27.589Z,8.20
2018-09-12T14:44:57.948Z,7.77
2018-09-12T14:47:28.171Z,7.97
2018-09-12T14:49:58.461Z,7.43
2018-09-12T14:52:28.532Z,8.10
2018-09-12T14:54:58.806Z,7.93
2018-09-12T14:57:28.978Z,7.80
2018-09-12T14:59:59.212Z,7.07
2018-09-12T15:02:29.184Z,7.50
2018-09-12T15:04:59.474Z,7.43
2018-09-12T15:07:29.659Z,7.47
2018-09-12T15:09:59.727Z,8.13
2018-09-12T15:12:29.839Z,7.33
2018-09-12T15:15:00.171Z,7.40
2018-09-12T15:17:30.454Z,7.63
2018-09-12T15:20:00.637Z,7.87
2018-09-12T15:22:30.848Z,7.77
2018-09-12T15:25:01.132Z,7.37
2018-09-12T15:27:31.415Z,7.10
2018-09-12T15:30:01.534Z,8.47
2018-09-12T15:32:31.740Z,7.60
2018-09-12T15:35:02.058Z,8.27
2018-09-12T15:37:32.370Z,9.40
2018-09-12T15:40:02.468Z,7.97
2018-09-12T15:42:32.557Z,8.30
2018-09-12T15:45:02.620Z,8.23
2018-09-12T15:47:39.021Z,16.13
2018-09-12T15:50:09.499Z,7.67
2018-09-12T15:52:39.771Z,8.23
2018-09-12T15:55:09.976Z,7.90
2018-09-12T15:57:40.221Z,7.50
2018-09-12T16:00:10.389Z,7.90
2018-09-12T16:02:40.443Z,8.00
2018-09-12T16:05:10.444Z,8.20
2018-09-12T16:07:40.673Z,7.97
2018-09-12T16:10:10.981Z,7.93
2018-09-12T16:12:41.033Z,8.60
2018-09-12T16:15:11.590Z,8.27
2018-09-12T16:17:41.813Z,8.37
2018-09-12T16:20:11.969Z,7.97
2018-09-12T16:22:42.214Z,8.03
2018-09-12T16:25:12.348Z,7.50
2018-09-12T16:27:42.753Z,8.23
2018-09-12T16:30:12.807Z,9.90
2018-09-12T16:32:43.033Z,13.73
2018-09-12T16:35:13.185Z,9.30
2018-09-12T16:37:43.416Z,8.03
2018-09-12T16:40:13.695Z,8.97
2018-09-12T16:42:43.978Z,8.23
2018-09-12T16:45:13.913Z,8.50
2018-09-12T16:47:44.476Z,8.17
2018-09-12T16:50:14.892Z,8.63
2018-09-12T16:52:44.910Z,8.20
2018-09-12T16:55:15.185Z,8.53
2018-09-12T16:57:45.177Z,8.67
2018-09-12T17:00:15.401Z,8.67
2018-09-12T17:02:45.435Z,8.83
2018-09-12T17:05:15.536Z,8.70
2018-09-12T17:07:45.692Z,7.90
2018-09-12T17:10:16.082Z,8.90
2018-09-12T17:12:46.270Z,8.43
2018-09-12T17:15:16.429Z,9.27
2018-09-12T17:17:46.523Z,9.23
2018-09-12T17:20:16.825Z,8.23
2018-09-12T17:22:46.944Z,8.87
2018-09-12T17:25:17.063Z,9.20
2018-09-12T17:27:47.501Z,9.30
2018-09-12T17:30:17.782Z,8.33
2018-09-12T17:32:47.981Z,9.60
2018-09-12T17:35:18.346Z,9.00
2018-09-12T17:37:48.525Z,9.13
2018-09-12T17:40:19.716Z,9.77
2018-09-12T17:42:50.021Z,9.57
2018-09-12T17:45:20.404Z,9.67
2018-09-12T17:47:50.692Z,9.40
2018-09-12T17:50:20.715Z,8.97
2018-09-12T17:52:50.978Z,9.77
2018-09-12T17:55:21.352Z,9.17
2018-09-12T17:57:51.539Z,9.90
2018-09-12T18:00:24.691Z,9.33
2018-09-12T18:02:55.054Z,13.13
2018-09-12T18:05:25.277Z,13.30
2018-09-12T18:10:49.882Z,14.27
2018-09-12T18:13:20.082Z,13.23
2018-09-12T18:15:50.259Z,11.40
2018-09-12T18:18:20.230Z,11.70
2018-09-12T18:20:50.898Z,11.73
2018-09-12T18:23:21.119Z,12.07
2018-09-12T18:25:51.334Z,11.30
2018-09-12T18:28:21.727Z,11.60
2018-09-12T18:30:52.859Z,13.60
2018-09-12T18:33:23.111Z,11.63
2018-09-12T18:35:53.538Z,11.67
2018-09-12T18:38:24.985Z,12.40
2018-09-12T18:40:55.206Z,10.87
2018-09-12T18:43:25.500Z,11.17
2018-09-12T18:45:56.184Z,10.93
2018-09-12T18:48:26.290Z,12.03
2018-09-12T18:50:57.554Z,11.60
2018-09-12T18:53:27.815Z,11.50
2018-09-12T18:55:58.040Z,11.70
2018-09-12T18:58:28.273Z,11.40
2018-09-12T19:00:58.455Z,15.83
2018-09-12T19:03:28.682Z,12.87
2018-09-12T19:05:59.076Z,12.80
2018-09-12T19:08:29.195Z,11.67
2018-09-12T19:10:59.523Z,11.87
2018-09-12T19:13:29.659Z,11.63
2018-09-12T19:15:59.718Z,12.17
2018-09-12T19:18:30.104Z,11.67
2018-09-12T19:21:00.305Z,11.33
2018-09-12T19:23:30.774Z,12.20
2018-09-12T19:26:01.356Z,11.23
2018-09-12T19:28:31.585Z,11.17
2018-09-12T19:31:01.752Z,12.47
2018-09-12T19:33:31.972Z,11.17
2018-09-12T19:36:02.082Z,11.43
2018-09-12T19:38:32.154Z,11.40
2018-09-12T19:41:02.456Z,11.13
2018-09-12T19:43:32.938Z,10.97
2018-09-12T19:46:03.260Z,10.80
2018-09-12T19:48:33.366Z,11.10
2018-09-12T19:51:06.595Z,11.17
2018-09-12T19:53:36.623Z,11.37
2018-09-12T19:56:06.698Z,11.00
2018-09-12T19:58:36.967Z,10.93
2018-09-12T20:01:07.120Z,11.40
2018-09-12T20:03:37.234Z,11.20
2018-09-12T20:06:07.005Z,11.10
2018-09-12T20:08:37.285Z,11.23
2018-09-12T20:11:07.699Z,11.33
2018-09-12T20:13:37.775Z,10.73
2018-09-12T20:16:08.114Z,11.60
2018-09-12T20:18:38.242Z,11.37
2018-09-12T20:21:08.478Z,11.40
2018-09-12T20:23:38.755Z,11.33
2018-09-12T20:26:08.895Z,11.80
2018-09-12T20:28:42.872Z,11.87
2018-09-12T20:31:13.114Z,11.37
2018-09-12T20:33:43.396Z,11.53
2018-09-12T20:36:13.680Z,11.87
2018-09-12T20:38:43.788Z,11.63
2018-09-12T20:41:14.027Z,12.03
2018-09-12T20:43:44.190Z,11.77
2018-09-12T20:46:14.386Z,11.73
2018-09-12T20:48:44.696Z,10.83
2018-09-12T20:51:14.895Z,12.00
2018-09-12T20:53:44.933Z,10.70
2018-09-12T20:56:14.911Z,10.73
2018-09-12T20:58:45.121Z,10.60
2018-09-12T21:01:15.444Z,11.83
2018-09-12T21:03:46.912Z,10.47
2018-09-12T21:06:17.765Z,11.23
2018-09-12T21:08:49.553Z,11.23
2018-09-12T21:11:19.917Z,11.27
2018-09-12T21:13:51.296Z,10.60
2018-09-12T21:16:22.879Z,10.63
2018-09-12T21:18:54.553Z,10.47
2018-09-12T21:21:26.221Z,10.63
2018-09-12T21:23:58.004Z,11.23
2018-09-12T21:26:29.477Z,9.70
2018-09-12T21:29:00.757Z,10.43
2018-09-12T21:31:31.852Z,10.70
2018-09-12T21:34:03.834Z,10.97
2018-09-12T21:36:35.100Z,11.10
2018-09-12T21:39:08.084Z,9.87
2018-09-12T21:41:38.462Z,11.23
2018-09-12T21:44:09.524Z,9.77
2018-09-12T21:46:40.855Z,10.87
2018-09-12T21:49:11.795Z,11.30
2018-09-12T21:51:42.942Z,12.17
2018-09-12T21:54:14.594Z,13.67
2018-09-12T21:56:46.535Z,12.90
2018-09-12T21:59:18.147Z,13.03
2018-09-12T22:01:49.612Z,13.20
2018-09-12T22:04:21.003Z,12.83
2018-09-12T22:06:53.427Z,13.23
2018-09-12T22:09:24.666Z,14.77
2018-09-12T22:11:56.117Z,14.43
2018-09-12T22:14:27.374Z,13.20
2018-09-12T22:16:59.301Z,13.77
2018-09-12T22:19:30.598Z,13.67
2018-09-12T22:22:01.647Z,13.67
2018-09-12T22:24:32.751Z,13.37
2018-09-12T22:27:03.786Z,13.93
2018-09-12T22:29:34.885Z,14.53
2018-09-12T22:32:06.095Z,14.37
2018-09-12T22:34:37.075Z,14.27
2018-09-12T22:37:09.044Z,14.10
2018-09-12T22:39:40.474Z,13.77
2018-09-12T22:42:11.605Z,13.63
2018-09-12T22:44:42.638Z,13.33
2018-09-12T22:47:14.005Z,13.80
2018-09-12T22:49:45.651Z,13.73
2018-09-12T22:52:16.709Z,13.27
2018-09-12T22:54:47.473Z,13.13
2018-09-12T22:57:19.502Z,13.83
2018-09-12T22:59:51.105Z,13.90
2018-09-12T23:02:22.769Z,13.80
2018-09-12T23:04:53.773Z,12.80
2018-09-12T23:07:25.428Z,14.10
2018-09-12T23:09:56.367Z,13.37
2018-09-12T23:12:27.594Z,13.60
2018-09-12T23:14:59.025Z,13.47
2018-09-12T23:17:31.220Z,14.20
2018-09-12T23:20:02.847Z,14.23
2018-09-12T23:22:34.556Z,14.30
2018-09-12T23:25:06.230Z,15.57
2018-09-12T23:27:37.902Z,13.73
2018-09-12T23:30:08.990Z,13.60
2018-09-12T23:32:40.534Z,12.67
2018-09-12T23:35:11.874Z,13.60
2018-09-12T23:37:43.175Z,12.03
2018-09-12T23:40:14.363Z,12.17
2018-09-12T23:42:45.927Z,10.90
2018-09-12T23:45:17.152Z,12.53
2018-09-12T23:47:48.600Z,11.77
2018-09-12T23:50:19.714Z,11.97
2018-09-12T23:52:51.173Z,11.30
2018-09-12T23:55:22.482Z,11.00
2018-09-12T23:57:53.957Z,10.73
